sensor_id;sensor_type;location;lat;lon;timestamp;P1;durP1;ratioP1;P2;durP2;ratioP2
13588;SDS011;6865;52.552;13.434;2022-09-03T00:00:53;3.03;;;1.67;;
13588;SDS011;6865;52.552;13.434;2022-09-03T00:03:26;3.90;;;1.90;;
13588;SDS011;6865;52.552;13.434;2022-09-03T00:06:02;4.47;;;2.10;;
13588;SDS011;6865;52.552;13.434;2022-09-03T00:08:42;4.50;;;1.80;;
13588;SDS011;6865;52.552;13.434;2022-09-03T00:11:26;2.83;;;1.80;;
13588;SDS011;6865;52.552;13.434;2022-09-03T00:14:22;5.13;;;1.60;;
13588;SDS011;6865;52.552;13.434;2022-09-03T00:16:53;6.03;;;1.50;;
13588;SDS011;6865;52.552;13.434;2022-09-03T00:19:25;3.47;;;1.40;;
13588;SDS011;6865;52.552;13.434;2022-09-03T00:21:56;4.87;;;1.67;;
13588;SDS011;6865;52.552;13.434;2022-09-03T00:24:28;2.33;;;1.40;;
13588;SDS011;6865;52.552;13.434;2022-09-03T00:26:59;5.10;;;1.50;;
13588;SDS011;6865;52.552;13.434;2022-09-03T00:29:40;3.33;;;1.67;;
13588;SDS011;6865;52.552;13.434;2022-09-03T00:32:41;4.73;;;1.70;;
13588;SDS011;6865;52.552;13.434;2022-09-03T00:36:05;4.40;;;1.83;;
13588;SDS011;6865;52.552;13.434;2022-09-03T00:38:15;3.80;;;1.53;;
13588;SDS011;6865;52.552;13.434;2022-09-03T00:40:46;1.97;;;1.57;;
13588;SDS011;6865;52.552;13.434;2022-09-03T00:43:49;2.23;;;1.60;;
13588;SDS011;6865;52.552;13.434;2022-09-03T00:46:44;3.10;;;1.40;;
13588;SDS011;6865;52.552;13.434;2022-09-03T00:52:07;2.13;;;1.50;;
13588;SDS011;6865;52.552;13.434;2022-09-03T00:57:49;2.30;;;1.40;;
13588;SDS011;6865;52.552;13.434;2022-09-03T01:00:27;2.20;;;1.40;;
13588;SDS011;6865;52.552;13.434;2022-09-03T01:09:22;2.83;;;1.50;;
13588;SDS011;6865;52.552;13.434;2022-09-03T01:12:06;2.60;;;1.50;;
13588;SDS011;6865;52.552;13.434;2022-09-03T01:17:44;2.77;;;1.50;;
13588;SDS011;6865;52.552;13.434;2022-09-03T01:20:22;3.63;;;1.70;;
13588;SDS011;6865;52.552;13.434;2022-09-03T01:26:23;3.23;;;1.50;;
13588;SDS011;6865;52.552;13.434;2022-09-03T01:29:10;1.73;;;1.50;;
13588;SDS011;6865;52.552;13.434;2022-09-03T01:34:33;1.90;;;1.40;;
13588;SDS011;6865;52.552;13.434;2022-09-03T01:45:40;2.63;;;1.60;;
13588;SDS011;6865;52.552;13.434;2022-09-03T01:48:35;2.23;;;1.60;;
13588;SDS011;6865;52.552;13.434;2022-09-03T01:51:29;2.17;;;1.40;;
13588;SDS011;6865;52.552;13.434;2022-09-03T01:54:11;3.27;;;1.70;;
13588;SDS011;6865;52.552;13.434;2022-09-03T01:56:53;5.20;;;1.77;;
13588;SDS011;6865;52.552;13.434;2022-09-03T02:00:36;2.70;;;1.40;;
13588;SDS011;6865;52.552;13.434;2022-09-03T02:02:59;4.40;;;1.40;;
13588;SDS011;6865;52.552;13.434;2022-09-03T02:05:30;2.47;;;1.60;;
13588;SDS011;6865;52.552;13.434;2022-09-03T02:07:58;2.27;;;1.57;;
13588;SDS011;6865;52.552;13.434;2022-09-03T02:10:28;2.27;;;1.30;;
13588;SDS011;6865;52.552;13.434;2022-09-03T02:13:18;2.73;;;1.50;;
13588;SDS011;6865;52.552;13.434;2022-09-03T02:15:51;3.27;;;1.50;;
13588;SDS011;6865;52.552;13.434;2022-09-03T02:18:23;4.87;;;1.37;;
13588;SDS011;6865;52.552;13.434;2022-09-03T02:20:52;1.87;;;1.47;;
13588;SDS011;6865;52.552;13.434;2022-09-03T02:23:20;2.23;;;1.60;;
13588;SDS011;6865;52.552;13.434;2022-09-03T02:25:56;4.70;;;1.50;;
13588;SDS011;6865;52.552;13.434;2022-09-03T02:28:26;4.83;;;1.60;;
13588;SDS011;6865;52.552;13.434;2022-09-03T02:30:56;2.67;;;1.40;;
13588;SDS011;6865;52.552;13.434;2022-09-03T02:33:23;4.87;;;1.40;;
13588;SDS011;6865;52.552;13.434;2022-09-03T02:35:50;2.33;;;1.50;;
13588;SDS011;6865;52.552;13.434;2022-09-03T02:38:24;4.13;;;1.60;;
13588;SDS011;6865;52.552;13.434;2022-09-03T02:40:51;4.33;;;1.60;;
13588;SDS011;6865;52.552;13.434;2022-09-03T02:43:23;5.33;;;1.60;;
13588;SDS011;6865;52.552;13.434;2022-09-03T02:45:54;3.03;;;1.70;;
13588;SDS011;6865;52.552;13.434;2022-09-03T02:48:26;3.00;;;1.60;;
13588;SDS011;6865;52.552;13.434;2022-09-03T02:50:53;2.27;;;1.70;;
13588;SDS011;6865;52.552;13.434;2022-09-03T02:53:20;4.30;;;2.10;;
13588;SDS011;6865;52.552;13.434;2022-09-03T02:55:46;4.13;;;1.70;;
13588;SDS011;6865;52.552;13.434;2022-09-03T02:58:13;2.63;;;1.73;;
13588;SDS011;6865;52.552;13.434;2022-09-03T03:00:40;3.20;;;1.63;;
13588;SDS011;6865;52.552;13.434;2022-09-03T03:03:06;3.00;;;2.00;;
13588;SDS011;6865;52.552;13.434;2022-09-03T03:05:36;2.53;;;1.90;;
13588;SDS011;6865;52.552;13.434;2022-09-03T03:08:10;3.57;;;1.60;;
13588;SDS011;6865;52.552;13.434;2022-09-03T03:10:40;2.97;;;1.80;;
13588;SDS011;6865;52.552;13.434;2022-09-03T03:13:08;3.43;;;1.60;;
13588;SDS011;6865;52.552;13.434;2022-09-03T03:15:35;4.63;;;1.83;;
13588;SDS011;6865;52.552;13.434;2022-09-03T03:18:02;3.90;;;1.70;;
13588;SDS011;6865;52.552;13.434;2022-09-03T03:20:29;3.30;;;1.57;;
13588;SDS011;6865;52.552;13.434;2022-09-03T03:22:55;1.87;;;1.50;;
13588;SDS011;6865;52.552;13.434;2022-09-03T03:25:22;3.73;;;1.40;;
13588;SDS011;6865;52.552;13.434;2022-09-03T03:27:49;2.10;;;1.50;;
13588;SDS011;6865;52.552;13.434;2022-09-03T03:30:15;3.70;;;1.53;;
13588;SDS011;6865;52.552;13.434;2022-09-03T03:32:42;3.13;;;1.60;;
13588;SDS011;6865;52.552;13.434;2022-09-03T03:35:10;2.70;;;1.67;;
13588;SDS011;6865;52.552;13.434;2022-09-03T03:37:36;3.43;;;1.53;;
13588;SDS011;6865;52.552;13.434;2022-09-03T03:40:03;2.30;;;1.70;;
13588;SDS011;6865;52.552;13.434;2022-09-03T03:42:34;3.87;;;1.70;;
13588;SDS011;6865;52.552;13.434;2022-09-03T03:45:01;4.07;;;1.93;;
13588;SDS011;6865;52.552;13.434;2022-09-03T03:47:28;3.70;;;1.63;;
13588;SDS011;6865;52.552;13.434;2022-09-03T03:49:56;2.13;;;1.53;;
13588;SDS011;6865;52.552;13.434;2022-09-03T03:52:23;3.90;;;1.70;;
13588;SDS011;6865;52.552;13.434;2022-09-03T03:54:51;4.57;;;1.90;;
13588;SDS011;6865;52.552;13.434;2022-09-03T03:57:20;2.53;;;1.70;;
13588;SDS011;6865;52.552;13.434;2022-09-03T03:59:48;2.70;;;1.60;;
13588;SDS011;6865;52.552;13.434;2022-09-03T04:02:16;3.57;;;1.70;;
13588;SDS011;6865;52.552;13.434;2022-09-03T04:04:43;2.53;;;1.70;;
13588;SDS011;6865;52.552;13.434;2022-09-03T04:07:10;3.33;;;1.80;;
13588;SDS011;6865;52.552;13.434;2022-09-03T04:09:37;4.20;;;1.70;;
13588;SDS011;6865;52.552;13.434;2022-09-03T04:12:04;2.97;;;1.80;;
13588;SDS011;6865;52.552;13.434;2022-09-03T04:14:33;2.47;;;1.70;;
13588;SDS011;6865;52.552;13.434;2022-09-03T04:17:00;4.17;;;2.13;;
13588;SDS011;6865;52.552;13.434;2022-09-03T04:19:28;5.07;;;1.80;;
13588;SDS011;6865;52.552;13.434;2022-09-03T04:21:55;2.83;;;1.80;;
13588;SDS011;6865;52.552;13.434;2022-09-03T04:24:22;5.13;;;1.90;;
13588;SDS011;6865;52.552;13.434;2022-09-03T04:26:49;3.10;;;2.00;;
13588;SDS011;6865;52.552;13.434;2022-09-03T04:29:15;5.50;;;1.80;;
13588;SDS011;6865;52.552;13.434;2022-09-03T04:31:43;2.20;;;1.70;;
13588;SDS011;6865;52.552;13.434;2022-09-03T04:34:30;3.17;;;1.90;;
13588;SDS011;6865;52.552;13.434;2022-09-03T04:36:56;3.80;;;2.23;;
13588;SDS011;6865;52.552;13.434;2022-09-03T04:39:24;3.47;;;1.60;;
13588;SDS011;6865;52.552;13.434;2022-09-03T04:41:51;2.97;;;1.77;;
13588;SDS011;6865;52.552;13.434;2022-09-03T04:44:18;4.17;;;1.80;;
13588;SDS011;6865;52.552;13.434;2022-09-03T04:46:44;4.00;;;1.80;;
13588;SDS011;6865;52.552;13.434;2022-09-03T04:49:12;3.33;;;1.77;;
13588;SDS011;6865;52.552;13.434;2022-09-03T04:51:40;3.00;;;2.20;;
13588;SDS011;6865;52.552;13.434;2022-09-03T04:54:07;3.07;;;2.10;;
13588;SDS011;6865;52.552;13.434;2022-09-03T04:56:38;3.80;;;2.00;;
13588;SDS011;6865;52.552;13.434;2022-09-03T04:59:06;4.90;;;2.10;;
13588;SDS011;6865;52.552;13.434;2022-09-03T05:01:35;2.30;;;1.87;;
13588;SDS011;6865;52.552;13.434;2022-09-03T05:04:04;3.67;;;2.13;;
13588;SDS011;6865;52.552;13.434;2022-09-03T05:06:32;2.97;;;1.93;;
13588;SDS011;6865;52.552;13.434;2022-09-03T05:08:59;2.50;;;1.90;;
13588;SDS011;6865;52.552;13.434;2022-09-03T05:11:27;3.43;;;1.97;;
13588;SDS011;6865;52.552;13.434;2022-09-03T05:13:55;5.03;;;2.10;;
13588;SDS011;6865;52.552;13.434;2022-09-03T05:16:24;2.80;;;1.90;;
13588;SDS011;6865;52.552;13.434;2022-09-03T05:18:54;3.53;;;2.10;;
13588;SDS011;6865;52.552;13.434;2022-09-03T05:21:22;5.63;;;2.10;;
13588;SDS011;6865;52.552;13.434;2022-09-03T05:23:49;3.33;;;1.90;;
13588;SDS011;6865;52.552;13.434;2022-09-03T05:26:19;2.50;;;1.87;;
13588;SDS011;6865;52.552;13.434;2022-09-03T05:28:47;3.27;;;2.27;;
13588;SDS011;6865;52.552;13.434;2022-09-03T05:31:18;7.77;;;2.27;;
13588;SDS011;6865;52.552;13.434;2022-09-03T05:33:46;3.57;;;2.10;;
13588;SDS011;6865;52.552;13.434;2022-09-03T05:36:16;2.40;;;2.00;;
13588;SDS011;6865;52.552;13.434;2022-09-03T05:38:44;3.13;;;1.97;;
13588;SDS011;6865;52.552;13.434;2022-09-03T05:41:13;4.33;;;2.20;;
13588;SDS011;6865;52.552;13.434;2022-09-03T05:43:41;6.13;;;2.60;;
13588;SDS011;6865;52.552;13.434;2022-09-03T05:46:12;2.30;;;2.00;;
13588;SDS011;6865;52.552;13.434;2022-09-03T05:48:43;2.63;;;2.00;;
13588;SDS011;6865;52.552;13.434;2022-09-03T05:51:11;2.50;;;1.80;;
13588;SDS011;6865;52.552;13.434;2022-09-03T05:53:42;5.30;;;2.10;;
13588;SDS011;6865;52.552;13.434;2022-09-03T05:56:11;4.90;;;2.23;;
13588;SDS011;6865;52.552;13.434;2022-09-03T05:58:43;4.57;;;2.20;;
13588;SDS011;6865;52.552;13.434;2022-09-03T06:01:17;3.43;;;2.07;;
13588;SDS011;6865;52.552;13.434;2022-09-03T06:03:55;2.77;;;2.13;;
13588;SDS011;6865;52.552;13.434;2022-09-03T06:06:27;3.43;;;1.87;;
13588;SDS011;6865;52.552;13.434;2022-09-03T06:08:56;3.87;;;2.10;;
13588;SDS011;6865;52.552;13.434;2022-09-03T06:11:28;5.10;;;2.03;;
13588;SDS011;6865;52.552;13.434;2022-09-03T06:13:56;5.20;;;1.80;;
13588;SDS011;6865;52.552;13.434;2022-09-03T06:16:25;2.80;;;1.90;;
13588;SDS011;6865;52.552;13.434;2022-09-03T06:18:57;3.43;;;2.30;;
13588;SDS011;6865;52.552;13.434;2022-09-03T06:21:24;3.83;;;1.90;;
13588;SDS011;6865;52.552;13.434;2022-09-03T06:23:53;4.27;;;1.97;;
13588;SDS011;6865;52.552;13.434;2022-09-03T06:26:24;3.43;;;2.17;;
13588;SDS011;6865;52.552;13.434;2022-09-03T06:28:53;3.97;;;2.10;;
13588;SDS011;6865;52.552;13.434;2022-09-03T06:31:21;4.90;;;2.00;;
13588;SDS011;6865;52.552;13.434;2022-09-03T06:33:48;4.17;;;1.73;;
13588;SDS011;6865;52.552;13.434;2022-09-03T06:36:16;3.03;;;2.27;;
13588;SDS011;6865;52.552;13.434;2022-09-03T06:38:45;2.20;;;1.77;;
13588;SDS011;6865;52.552;13.434;2022-09-03T06:41:13;2.87;;;2.20;;
13588;SDS011;6865;52.552;13.434;2022-09-03T06:43:52;2.63;;;1.80;;
13588;SDS011;6865;52.552;13.434;2022-09-03T06:46:24;3.63;;;2.03;;
13588;SDS011;6865;52.552;13.434;2022-09-03T06:48:50;2.80;;;1.90;;
13588;SDS011;6865;52.552;13.434;2022-09-03T06:51:19;5.23;;;2.20;;
13588;SDS011;6865;52.552;13.434;2022-09-03T06:53:48;4.93;;;1.97;;
13588;SDS011;6865;52.552;13.434;2022-09-03T06:56:17;3.53;;;2.00;;
13588;SDS011;6865;52.552;13.434;2022-09-03T06:58:48;3.80;;;2.20;;
13588;SDS011;6865;52.552;13.434;2022-09-03T07:01:16;6.77;;;2.10;;
13588;SDS011;6865;52.552;13.434;2022-09-03T07:03:51;5.40;;;2.30;;
13588;SDS011;6865;52.552;13.434;2022-09-03T07:06:23;2.70;;;2.17;;
13588;SDS011;6865;52.552;13.434;2022-09-03T07:08:51;3.57;;;2.00;;
13588;SDS011;6865;52.552;13.434;2022-09-03T07:11:19;4.00;;;1.90;;
13588;SDS011;6865;52.552;13.434;2022-09-03T07:13:49;2.80;;;1.70;;
13588;SDS011;6865;52.552;13.434;2022-09-03T07:16:18;2.40;;;1.63;;
13588;SDS011;6865;52.552;13.434;2022-09-03T07:18:47;4.10;;;1.77;;
13588;SDS011;6865;52.552;13.434;2022-09-03T07:21:15;4.07;;;1.80;;
13588;SDS011;6865;52.552;13.434;2022-09-03T07:23:44;2.20;;;1.70;;
13588;SDS011;6865;52.552;13.434;2022-09-03T07:26:16;4.00;;;1.80;;
13588;SDS011;6865;52.552;13.434;2022-09-03T07:28:47;2.97;;;2.30;;
13588;SDS011;6865;52.552;13.434;2022-09-03T07:31:16;4.72;;;2.00;;
13588;SDS011;6865;52.552;13.434;2022-09-03T07:33:45;5.17;;;1.90;;
13588;SDS011;6865;52.552;13.434;2022-09-03T07:36:15;7.32;;;2.05;;
13588;SDS011;6865;52.552;13.434;2022-09-03T07:38:43;2.80;;;2.10;;
13588;SDS011;6865;52.552;13.434;2022-09-03T07:41:11;3.85;;;1.80;;
13588;SDS011;6865;52.552;13.434;2022-09-03T07:43:53;4.43;;;1.80;;
13588;SDS011;6865;52.552;13.434;2022-09-03T07:46:21;3.25;;;2.05;;
13588;SDS011;6865;52.552;13.434;2022-09-03T07:48:50;3.95;;;1.70;;
13588;SDS011;6865;52.552;13.434;2022-09-03T07:51:19;4.82;;;2.20;;
13588;SDS011;6865;52.552;13.434;2022-09-03T07:53:47;4.55;;;1.95;;
13588;SDS011;6865;52.552;13.434;2022-09-03T07:56:14;4.07;;;1.73;;
13588;SDS011;6865;52.552;13.434;2022-09-03T07:58:42;4.43;;;2.00;;
13588;SDS011;6865;52.552;13.434;2022-09-03T08:01:14;3.50;;;2.00;;
13588;SDS011;6865;52.552;13.434;2022-09-03T08:03:46;3.42;;;1.90;;
13588;SDS011;6865;52.552;13.434;2022-09-03T08:06:15;3.65;;;2.00;;
13588;SDS011;6865;52.552;13.434;2022-09-03T08:08:43;3.50;;;2.20;;
13588;SDS011;6865;52.552;13.434;2022-09-03T08:11:14;3.35;;;2.10;;
13588;SDS011;6865;52.552;13.434;2022-09-03T08:13:44;7.45;;;2.03;;
13588;SDS011;6865;52.552;13.434;2022-09-03T08:16:14;3.45;;;1.92;;
13588;SDS011;6865;52.552;13.434;2022-09-03T08:18:42;3.30;;;1.80;;
13588;SDS011;6865;52.552;13.434;2022-09-03T08:21:09;4.15;;;1.80;;
13588;SDS011;6865;52.552;13.434;2022-09-03T08:23:42;2.92;;;1.90;;
13588;SDS011;6865;52.552;13.434;2022-09-03T08:26:10;6.60;;;1.90;;
13588;SDS011;6865;52.552;13.434;2022-09-03T08:28:37;3.25;;;1.90;;
13588;SDS011;6865;52.552;13.434;2022-09-03T08:31:08;1.98;;;1.42;;
13588;SDS011;6865;52.552;13.434;2022-09-03T08:33:39;2.60;;;1.80;;
13588;SDS011;6865;52.552;13.434;2022-09-03T08:36:09;3.38;;;1.90;;
13588;SDS011;6865;52.552;13.434;2022-09-03T08:38:43;3.35;;;1.90;;
13588;SDS011;6865;52.552;13.434;2022-09-03T08:41:15;2.72;;;1.80;;
13588;SDS011;6865;52.552;13.434;2022-09-03T08:44:05;4.53;;;1.77;;
13588;SDS011;6865;52.552;13.434;2022-09-03T08:49:38;6.50;;;1.98;;
13588;SDS011;6865;52.552;13.434;2022-09-03T08:52:20;4.38;;;2.00;;
13588;SDS011;6865;52.552;13.434;2022-09-03T08:55:21;3.03;;;1.92;;
13588;SDS011;6865;52.552;13.434;2022-09-03T08:58:01;3.38;;;1.70;;
13588;SDS011;6865;52.552;13.434;2022-09-03T09:06:33;4.47;;;2.13;;
13588;SDS011;6865;52.552;13.434;2022-09-03T09:09:12;6.80;;;1.92;;
13588;SDS011;6865;52.552;13.434;2022-09-03T09:11:48;6.07;;;2.00;;
13588;SDS011;6865;52.552;13.434;2022-09-03T09:14:44;4.82;;;1.80;;
13588;SDS011;6865;52.552;13.434;2022-09-03T09:17:46;3.42;;;1.70;;
13588;SDS011;6865;52.552;13.434;2022-09-03T09:20:39;4.93;;;1.70;;
13588;SDS011;6865;52.552;13.434;2022-09-03T09:23:13;3.35;;;1.90;;
13588;SDS011;6865;52.552;13.434;2022-09-03T09:25:46;3.85;;;1.90;;
13588;SDS011;6865;52.552;13.434;2022-09-03T09:28:19;2.72;;;1.65;;
13588;SDS011;6865;52.552;13.434;2022-09-03T09:30:48;4.13;;;2.15;;
13588;SDS011;6865;52.552;13.434;2022-09-03T09:33:17;4.18;;;2.13;;
13588;SDS011;6865;52.552;13.434;2022-09-03T09:35:46;3.08;;;1.80;;
13588;SDS011;6865;52.552;13.434;2022-09-03T09:38:14;1.85;;;1.50;;
13588;SDS011;6865;52.552;13.434;2022-09-03T09:40:42;4.18;;;1.80;;
13588;SDS011;6865;52.552;13.434;2022-09-03T09:43:12;4.43;;;1.80;;
13588;SDS011;6865;52.552;13.434;2022-09-03T09:45:42;3.55;;;1.75;;
13588;SDS011;6865;52.552;13.434;2022-09-03T09:48:21;3.65;;;1.80;;
13588;SDS011;6865;52.552;13.434;2022-09-03T09:53:34;3.03;;;1.70;;
13588;SDS011;6865;52.552;13.434;2022-09-03T09:56:01;4.85;;;1.83;;
13588;SDS011;6865;52.552;13.434;2022-09-03T09:58:28;2.10;;;1.50;;
13588;SDS011;6865;52.552;13.434;2022-09-03T10:01:08;3.50;;;1.90;;
13588;SDS011;6865;52.552;13.434;2022-09-03T10:03:47;4.13;;;1.50;;
13588;SDS011;6865;52.552;13.434;2022-09-03T10:06:25;2.03;;;1.40;;
13588;SDS011;6865;52.552;13.434;2022-09-03T10:09:15;3.20;;;1.60;;
13588;SDS011;6865;52.552;13.434;2022-09-03T10:11:44;3.33;;;1.40;;
13588;SDS011;6865;52.552;13.434;2022-09-03T10:14:27;3.78;;;1.30;;
13588;SDS011;6865;52.552;13.434;2022-09-03T10:17:04;7.45;;;1.75;;
13588;SDS011;6865;52.552;13.434;2022-09-03T10:19:47;2.63;;;1.85;;
13588;SDS011;6865;52.552;13.434;2022-09-03T10:22:55;2.47;;;1.73;;
13588;SDS011;6865;52.552;13.434;2022-09-03T10:25:29;2.30;;;1.45;;
13588;SDS011;6865;52.552;13.434;2022-09-03T10:28:21;2.42;;;1.63;;
13588;SDS011;6865;52.552;13.434;2022-09-03T10:30:59;5.40;;;1.50;;
13588;SDS011;6865;52.552;13.434;2022-09-03T10:33:59;3.67;;;1.65;;
13588;SDS011;6865;52.552;13.434;2022-09-03T10:36:30;3.28;;;1.50;;
13588;SDS011;6865;52.552;13.434;2022-09-03T10:39:08;4.70;;;1.42;;
13588;SDS011;6865;52.552;13.434;2022-09-03T10:41:49;4.25;;;1.50;;
13588;SDS011;6865;52.552;13.434;2022-09-03T10:47:36;4.85;;;1.92;;
13588;SDS011;6865;52.552;13.434;2022-09-03T10:55:57;2.70;;;1.70;;
13588;SDS011;6865;52.552;13.434;2022-09-03T11:04:19;2.90;;;1.70;;
13588;SDS011;6865;52.552;13.434;2022-09-03T11:07:06;5.95;;;1.80;;
13588;SDS011;6865;52.552;13.434;2022-09-03T11:09:36;2.40;;;1.60;;
13588;SDS011;6865;52.552;13.434;2022-09-03T11:12:35;3.08;;;1.80;;
13588;SDS011;6865;52.552;13.434;2022-09-03T11:15:12;3.28;;;1.73;;
13588;SDS011;6865;52.552;13.434;2022-09-03T11:18:13;2.95;;;1.73;;
13588;SDS011;6865;52.552;13.434;2022-09-03T11:20:46;2.47;;;1.50;;
13588;SDS011;6865;52.552;13.434;2022-09-03T11:23:14;2.08;;;1.48;;
13588;SDS011;6865;52.552;13.434;2022-09-03T11:25:47;3.05;;;1.80;;
13588;SDS011;6865;52.552;13.434;2022-09-03T11:28:38;1.83;;;1.58;;
13588;SDS011;6865;52.552;13.434;2022-09-03T11:31:22;2.13;;;1.52;;
13588;SDS011;6865;52.552;13.434;2022-09-03T11:34:07;2.10;;;1.65;;
13588;SDS011;6865;52.552;13.434;2022-09-03T11:36:48;3.10;;;1.60;;
13588;SDS011;6865;52.552;13.434;2022-09-03T11:39:19;2.83;;;1.55;;
13588;SDS011;6865;52.552;13.434;2022-09-03T11:41:58;4.85;;;1.58;;
13588;SDS011;6865;52.552;13.434;2022-09-03T11:44:39;6.05;;;1.80;;
13588;SDS011;6865;52.552;13.434;2022-09-03T11:47:23;2.33;;;1.50;;
13588;SDS011;6865;52.552;13.434;2022-09-03T11:50:06;2.95;;;1.60;;
13588;SDS011;6865;52.552;13.434;2022-09-03T11:52:46;2.58;;;1.65;;
13588;SDS011;6865;52.552;13.434;2022-09-03T11:55:30;2.15;;;1.60;;
13588;SDS011;6865;52.552;13.434;2022-09-03T11:58:10;3.50;;;1.70;;
13588;SDS011;6865;52.552;13.434;2022-09-03T12:00:43;4.25;;;1.70;;
13588;SDS011;6865;52.552;13.434;2022-09-03T12:03:12;6.93;;;1.90;;
13588;SDS011;6865;52.552;13.434;2022-09-03T12:05:55;3.55;;;1.77;;
13588;SDS011;6865;52.552;13.434;2022-09-03T12:11:41;4.50;;;1.80;;
13588;SDS011;6865;52.552;13.434;2022-09-03T12:14:39;4.28;;;2.47;;
13588;SDS011;6865;52.552;13.434;2022-09-03T12:20:46;2.20;;;1.40;;
13588;SDS011;6865;52.552;13.434;2022-09-03T12:23:27;3.28;;;1.42;;
13588;SDS011;6865;52.552;13.434;2022-09-03T12:25:57;6.75;;;2.00;;
13588;SDS011;6865;52.552;13.434;2022-09-03T12:28:34;2.45;;;1.70;;
13588;SDS011;6865;52.552;13.434;2022-09-03T12:31:19;2.70;;;1.83;;
13588;SDS011;6865;52.552;13.434;2022-09-03T12:33:54;3.38;;;1.38;;
13588;SDS011;6865;52.552;13.434;2022-09-03T12:36:24;3.75;;;1.50;;
13588;SDS011;6865;52.552;13.434;2022-09-03T12:39:10;2.40;;;1.67;;
13588;SDS011;6865;52.552;13.434;2022-09-03T12:44:27;2.08;;;1.55;;
13588;SDS011;6865;52.552;13.434;2022-09-03T12:47:13;7.18;;;1.98;;
13588;SDS011;6865;52.552;13.434;2022-09-03T12:50:04;1.92;;;1.30;;
13588;SDS011;6865;52.552;13.434;2022-09-03T12:52:35;3.58;;;1.45;;
13588;SDS011;6865;52.552;13.434;2022-09-03T12:55:28;2.20;;;1.50;;
13588;SDS011;6865;52.552;13.434;2022-09-03T12:58:24;7.32;;;1.40;;
13588;SDS011;6865;52.552;13.434;2022-09-03T13:01:22;3.28;;;1.38;;
13588;SDS011;6865;52.552;13.434;2022-09-03T13:04:07;1.83;;;1.38;;
13588;SDS011;6865;52.552;13.434;2022-09-03T13:06:44;1.90;;;1.35;;
13588;SDS011;6865;52.552;13.434;2022-09-03T13:09:19;2.00;;;1.50;;
13588;SDS011;6865;52.552;13.434;2022-09-03T13:11:51;2.42;;;1.35;;
13588;SDS011;6865;52.552;13.434;2022-09-03T13:14:20;2.33;;;1.50;;
13588;SDS011;6865;52.552;13.434;2022-09-03T13:19:44;4.00;;;1.50;;
13588;SDS011;6865;52.552;13.434;2022-09-03T13:22:39;4.72;;;1.70;;
13588;SDS011;6865;52.552;13.434;2022-09-03T13:28:25;2.08;;;1.60;;
13588;SDS011;6865;52.552;13.434;2022-09-03T13:31:22;3.75;;;1.70;;
13588;SDS011;6865;52.552;13.434;2022-09-03T13:34:05;5.82;;;1.70;;
13588;SDS011;6865;52.552;13.434;2022-09-03T13:36:44;3.30;;;1.65;;
13588;SDS011;6865;52.552;13.434;2022-09-03T13:39:27;2.33;;;1.80;;
13588;SDS011;6865;52.552;13.434;2022-09-03T13:42:55;3.80;;;1.60;;
13588;SDS011;6865;52.552;13.434;2022-09-03T13:45:05;2.22;;;1.58;;
13588;SDS011;6865;52.552;13.434;2022-09-03T13:47:51;3.03;;;1.60;;
13588;SDS011;6865;52.552;13.434;2022-09-03T13:51:06;2.70;;;1.60;;
13588;SDS011;6865;52.552;13.434;2022-09-03T13:53:47;2.50;;;1.65;;
13588;SDS011;6865;52.552;13.434;2022-09-03T13:56:33;3.75;;;1.80;;
13588;SDS011;6865;52.552;13.434;2022-09-03T13:59:19;3.42;;;1.67;;
13588;SDS011;6865;52.552;13.434;2022-09-03T14:02:15;2.25;;;1.65;;
13588;SDS011;6865;52.552;13.434;2022-09-03T14:13:01;2.65;;;1.52;;
13588;SDS011;6865;52.552;13.434;2022-09-03T14:15:58;4.22;;;1.52;;
13588;SDS011;6865;52.552;13.434;2022-09-03T14:18:56;4.47;;;1.55;;
13588;SDS011;6865;52.552;13.434;2022-09-03T14:21:30;2.00;;;1.60;;
13588;SDS011;6865;52.552;13.434;2022-09-03T14:24:03;1.63;;;1.52;;
13588;SDS011;6865;52.552;13.434;2022-09-03T14:26:48;3.47;;;1.60;;
13588;SDS011;6865;52.552;13.434;2022-09-03T14:29:31;1.85;;;1.60;;
13588;SDS011;6865;52.552;13.434;2022-09-03T14:32:09;4.53;;;1.70;;
13588;SDS011;6865;52.552;13.434;2022-09-03T14:34:53;2.65;;;1.60;;
13588;SDS011;6865;52.552;13.434;2022-09-03T14:37:39;2.35;;;1.50;;
13588;SDS011;6865;52.552;13.434;2022-09-03T14:40:28;3.40;;;1.58;;
13588;SDS011;6865;52.552;13.434;2022-09-03T14:43:15;2.70;;;1.90;;
13588;SDS011;6865;52.552;13.434;2022-09-03T14:48:51;3.83;;;1.75;;
13588;SDS011;6865;52.552;13.434;2022-09-03T14:54:22;2.10;;;1.60;;
13588;SDS011;6865;52.552;13.434;2022-09-03T14:57:22;3.42;;;1.80;;
13588;SDS011;6865;52.552;13.434;2022-09-03T15:05:49;2.92;;;1.80;;
13588;SDS011;6865;52.552;13.434;2022-09-03T15:11:21;2.83;;;1.80;;
13588;SDS011;6865;52.552;13.434;2022-09-03T15:13:52;3.33;;;1.80;;
13588;SDS011;6865;52.552;13.434;2022-09-03T15:16:36;3.78;;;1.60;;
13588;SDS011;6865;52.552;13.434;2022-09-03T15:24:54;3.08;;;1.70;;
13588;SDS011;6865;52.552;13.434;2022-09-03T15:27:47;3.13;;;1.70;;
13588;SDS011;6865;52.552;13.434;2022-09-03T15:30:42;2.42;;;1.58;;
13588;SDS011;6865;52.552;13.434;2022-09-03T15:33:58;3.20;;;1.52;;
13588;SDS011;6865;52.552;13.434;2022-09-03T15:36:13;2.85;;;1.88;;
13588;SDS011;6865;52.552;13.434;2022-09-03T15:38:49;2.38;;;1.80;;
13588;SDS011;6865;52.552;13.434;2022-09-03T15:41:38;2.53;;;1.83;;
13588;SDS011;6865;52.552;13.434;2022-09-03T15:44:12;2.38;;;1.60;;
13588;SDS011;6865;52.552;13.434;2022-09-03T15:46:51;3.13;;;1.90;;
13588;SDS011;6865;52.552;13.434;2022-09-03T15:49:27;4.28;;;1.83;;
13588;SDS011;6865;52.552;13.434;2022-09-03T15:52:05;3.85;;;1.77;;
13588;SDS011;6865;52.552;13.434;2022-09-03T15:55:09;2.92;;;1.60;;
13588;SDS011;6865;52.552;13.434;2022-09-03T15:57:58;3.50;;;1.60;;
13588;SDS011;6865;52.552;13.434;2022-09-03T16:03:43;4.00;;;1.55;;
13588;SDS011;6865;52.552;13.434;2022-09-03T16:06:43;3.10;;;1.90;;
13588;SDS011;6865;52.552;13.434;2022-09-03T16:15:27;2.92;;;2.00;;
13588;SDS011;6865;52.552;13.434;2022-09-03T16:18:08;4.90;;;2.17;;
13588;SDS011;6865;52.552;13.434;2022-09-03T16:20:55;2.95;;;2.08;;
13588;SDS011;6865;52.552;13.434;2022-09-03T16:23:32;2.67;;;2.22;;
13588;SDS011;6865;52.552;13.434;2022-09-03T16:26:07;4.43;;;2.10;;
13588;SDS011;6865;52.552;13.434;2022-09-03T16:31:41;5.50;;;2.35;;
13588;SDS011;6865;52.552;13.434;2022-09-03T16:34:45;4.20;;;2.20;;
13588;SDS011;6865;52.552;13.434;2022-09-03T16:37:45;3.70;;;2.28;;
13588;SDS011;6865;52.552;13.434;2022-09-03T16:40:30;3.10;;;2.20;;
13588;SDS011;6865;52.552;13.434;2022-09-03T16:46:16;6.25;;;2.20;;
13588;SDS011;6865;52.552;13.434;2022-09-03T16:48:52;3.67;;;2.45;;
13588;SDS011;6865;52.552;13.434;2022-09-03T16:51:53;6.45;;;2.50;;
13588;SDS011;6865;52.552;13.434;2022-09-03T16:54:45;4.22;;;2.55;;
13588;SDS011;6865;52.552;13.434;2022-09-03T17:00:27;3.53;;;2.22;;
13588;SDS011;6865;52.552;13.434;2022-09-03T17:03:26;3.17;;;2.13;;
13588;SDS011;6865;52.552;13.434;2022-09-03T17:06:35;3.75;;;2.28;;
13588;SDS011;6865;52.552;13.434;2022-09-03T17:12:05;4.05;;;2.42;;
13588;SDS011;6865;52.552;13.434;2022-09-03T17:14:51;4.55;;;2.80;;
13588;SDS011;6865;52.552;13.434;2022-09-03T17:17:36;5.38;;;2.70;;
13588;SDS011;6865;52.552;13.434;2022-09-03T17:20:27;6.15;;;2.55;;
13588;SDS011;6865;52.552;13.434;2022-09-03T17:25:37;4.53;;;2.60;;
13588;SDS011;6865;52.552;13.434;2022-09-03T17:28:10;3.75;;;2.40;;
13588;SDS011;6865;52.552;13.434;2022-09-03T17:36:37;3.15;;;2.72;;
13588;SDS011;6865;52.552;13.434;2022-09-03T17:39:25;5.22;;;2.40;;
13588;SDS011;6865;52.552;13.434;2022-09-03T17:42:26;5.00;;;2.58;;
13588;SDS011;6865;52.552;13.434;2022-09-03T17:45:28;5.00;;;2.97;;
13588;SDS011;6865;52.552;13.434;2022-09-03T17:48:24;5.90;;;2.70;;
13588;SDS011;6865;52.552;13.434;2022-09-03T17:51:24;3.72;;;2.72;;
13588;SDS011;6865;52.552;13.434;2022-09-03T17:54:11;7.60;;;2.72;;